KNTU/NTU METAR and TAF weather

Enter ICAO airport designator
Station Type Date Time Source
KNTU METAR 2020/12/06 01:56 UTC NOAA

KNTU 060156Z 35011KT 10SM SCT060 08/M02 A2996 RMK AO2 SLP147 T00831017


Station Type Date Time Source
KNTU Decoded METAR 2020/12/06 01:56 UTC NOAA

OCEANA, NAVAL AIR STATION, VA, United States (KNTU) 36-49N 076-02W 6M
Dec 05, 2020 - 08:56 PM EST / 2020.12.06 0156 UTC
Wind: from the N (350 degrees) at 13 MPH (11 KT):0
Visibility: 10 mile(s):0
Sky conditions: partly cloudy
Temperature: 46.9 F (8.3 C)
Dew Point: 28.9 F (-1.7 C)
Relative Humidity: 49%
Pressure (altimeter): 29.96 in. Hg (1014 hPa)
ob: KNTU 060156Z 35011KT 10SM SCT060 08/M02 A2996 RMK AO2 SLP147 T00831017
cycle: 2

Station Type Date Time Source
KNTU TAF 2020/12/05 23:16 UTC NOAA

TAF COR KNTU 0523/0623 30012KT 9999 BKN035 QNH2984INS
BECMG 0601/0603 32008KT 9999 SCT035 QNH2995INS
FM061400 29006KT 9999 FEW035 SCT100 QNH2999INS
BECMG 0619/0620 VRB06KT 9999 SCT035 SCT100 QNH2990INS T04/0611Z T09/0620Z COR 2311 FN00205

Example: see airport list